sensor_id;sensor_type;location;lat;lon;timestamp;P1;durP1;ratioP1;P2;durP2;ratioP2
23250;SDS011;11794;49.730;10.088;2023-09-12T00:00:49;8.00;;;2.58;;
23250;SDS011;11794;49.730;10.088;2023-09-12T00:03:14;6.03;;;2.20;;
23250;SDS011;11794;49.730;10.088;2023-09-12T00:05:50;11.05;;;2.75;;
23250;SDS011;11794;49.730;10.088;2023-09-12T00:08:19;9.27;;;2.13;;
23250;SDS011;11794;49.730;10.088;2023-09-12T00:10:45;7.82;;;2.20;;
23250;SDS011;11794;49.730;10.088;2023-09-12T00:13:10;7.50;;;1.97;;
23250;SDS011;11794;49.730;10.088;2023-09-12T00:15:36;10.60;;;2.60;;
23250;SDS011;11794;49.730;10.088;2023-09-12T00:18:01;8.23;;;2.43;;
23250;SDS011;11794;49.730;10.088;2023-09-12T00:20:27;7.28;;;2.17;;
23250;SDS011;11794;49.730;10.088;2023-09-12T00:22:53;10.47;;;2.00;;
23250;SDS011;11794;49.730;10.088;2023-09-12T00:25:19;12.07;;;2.47;;
23250;SDS011;11794;49.730;10.088;2023-09-12T00:27:45;7.80;;;2.10;;
23250;SDS011;11794;49.730;10.088;2023-09-12T00:30:14;8.57;;;2.40;;
23250;SDS011;11794;49.730;10.088;2023-09-12T00:32:40;7.30;;;2.55;;
23250;SDS011;11794;49.730;10.088;2023-09-12T00:35:06;7.10;;;2.00;;
23250;SDS011;11794;49.730;10.088;2023-09-12T00:37:32;6.82;;;2.10;;
23250;SDS011;11794;49.730;10.088;2023-09-12T00:39:57;9.47;;;2.30;;
23250;SDS011;11794;49.730;10.088;2023-09-12T00:42:26;8.73;;;2.20;;
23250;SDS011;11794;49.730;10.088;2023-09-12T00:44:52;9.05;;;2.28;;
23250;SDS011;11794;49.730;10.088;2023-09-12T00:47:17;7.57;;;2.10;;
23250;SDS011;11794;49.730;10.088;2023-09-12T00:49:44;8.63;;;2.53;;
23250;SDS011;11794;49.730;10.088;2023-09-12T00:52:12;8.68;;;2.47;;
23250;SDS011;11794;49.730;10.088;2023-09-12T00:54:39;8.02;;;2.25;;
23250;SDS011;11794;49.730;10.088;2023-09-12T00:57:05;6.55;;;1.95;;
23250;SDS011;11794;49.730;10.088;2023-09-12T00:59:31;7.97;;;2.17;;
23250;SDS011;11794;49.730;10.088;2023-09-12T01:01:56;6.73;;;2.27;;
23250;SDS011;11794;49.730;10.088;2023-09-12T01:04:23;8.25;;;2.30;;
23250;SDS011;11794;49.730;10.088;2023-09-12T01:06:49;6.70;;;2.17;;
23250;SDS011;11794;49.730;10.088;2023-09-12T01:09:14;9.63;;;2.43;;
23250;SDS011;11794;49.730;10.088;2023-09-12T01:11:40;7.40;;;2.30;;
23250;SDS011;11794;49.730;10.088;2023-09-12T01:14:06;7.83;;;2.57;;
23250;SDS011;11794;49.730;10.088;2023-09-12T01:16:31;6.78;;;2.60;;
23250;SDS011;11794;49.730;10.088;2023-09-12T01:18:57;9.60;;;2.17;;
23250;SDS011;11794;49.730;10.088;2023-09-12T01:29:49;8.27;;;2.17;;
23250;SDS011;11794;49.730;10.088;2023-09-12T01:32:18;9.43;;;2.30;;
23250;SDS011;11794;49.730;10.088;2023-09-12T01:34:45;8.68;;;2.20;;
23250;SDS011;11794;49.730;10.088;2023-09-12T01:37:10;6.65;;;2.20;;
23250;SDS011;11794;49.730;10.088;2023-09-12T01:39:36;9.17;;;2.60;;
23250;SDS011;11794;49.730;10.088;2023-09-12T01:42:01;7.23;;;2.70;;
23250;SDS011;11794;49.730;10.088;2023-09-12T01:44:28;8.70;;;2.60;;
23250;SDS011;11794;49.730;10.088;2023-09-12T01:46:55;6.72;;;2.40;;
23250;SDS011;11794;49.730;10.088;2023-09-12T01:49:27;7.93;;;2.40;;
23250;SDS011;11794;49.730;10.088;2023-09-12T01:51:54;10.38;;;2.55;;
23250;SDS011;11794;49.730;10.088;2023-09-12T01:54:20;7.90;;;2.78;;
23250;SDS011;11794;49.730;10.088;2023-09-12T01:56:47;8.60;;;2.65;;
23250;SDS011;11794;49.730;10.088;2023-09-12T01:59:13;9.32;;;2.25;;
23250;SDS011;11794;49.730;10.088;2023-09-12T02:01:38;7.27;;;2.77;;
23250;SDS011;11794;49.730;10.088;2023-09-12T02:04:04;8.00;;;2.92;;
23250;SDS011;11794;49.730;10.088;2023-09-12T02:06:33;11.13;;;2.70;;
23250;SDS011;11794;49.730;10.088;2023-09-12T02:08:59;9.83;;;2.50;;
23250;SDS011;11794;49.730;10.088;2023-09-12T02:11:26;7.13;;;2.47;;
23250;SDS011;11794;49.730;10.088;2023-09-12T02:13:51;8.50;;;2.92;;
23250;SDS011;11794;49.730;10.088;2023-09-12T02:16:17;6.40;;;2.33;;
23250;SDS011;11794;49.730;10.088;2023-09-12T02:18:42;9.60;;;2.80;;
23250;SDS011;11794;49.730;10.088;2023-09-12T02:21:08;7.45;;;2.58;;
23250;SDS011;11794;49.730;10.088;2023-09-12T02:23:34;11.77;;;2.40;;
23250;SDS011;11794;49.730;10.088;2023-09-12T02:25:59;7.70;;;2.63;;
23250;SDS011;11794;49.730;10.088;2023-09-12T02:28:25;6.57;;;2.20;;
23250;SDS011;11794;49.730;10.088;2023-09-12T02:30:50;7.33;;;2.77;;
23250;SDS011;11794;49.730;10.088;2023-09-12T02:33:16;6.95;;;2.10;;
23250;SDS011;11794;49.730;10.088;2023-09-12T02:35:41;6.87;;;2.57;;
23250;SDS011;11794;49.730;10.088;2023-09-12T02:38:07;7.13;;;2.57;;
23250;SDS011;11794;49.730;10.088;2023-09-12T02:40:33;9.25;;;2.60;;
23250;SDS011;11794;49.730;10.088;2023-09-12T02:42:58;6.83;;;2.93;;
23250;SDS011;11794;49.730;10.088;2023-09-12T02:45:24;8.45;;;2.80;;
23250;SDS011;11794;49.730;10.088;2023-09-12T02:47:49;8.30;;;2.93;;
23250;SDS011;11794;49.730;10.088;2023-09-12T02:50:15;7.73;;;2.30;;
23250;SDS011;11794;49.730;10.088;2023-09-12T02:52:40;7.43;;;2.90;;
23250;SDS011;11794;49.730;10.088;2023-09-12T02:55:06;7.77;;;2.73;;
23250;SDS011;11794;49.730;10.088;2023-09-12T02:57:31;8.32;;;2.42;;
23250;SDS011;11794;49.730;10.088;2023-09-12T02:59:58;10.00;;;2.60;;
23250;SDS011;11794;49.730;10.088;2023-09-12T03:02:23;7.55;;;2.63;;
23250;SDS011;11794;49.730;10.088;2023-09-12T03:04:49;9.80;;;2.50;;
23250;SDS011;11794;49.730;10.088;2023-09-12T03:07:14;8.07;;;2.47;;
23250;SDS011;11794;49.730;10.088;2023-09-12T03:09:40;7.47;;;2.40;;
23250;SDS011;11794;49.730;10.088;2023-09-12T03:12:05;9.07;;;2.55;;
23250;SDS011;11794;49.730;10.088;2023-09-12T03:14:31;7.43;;;2.73;;
23250;SDS011;11794;49.730;10.088;2023-09-12T03:16:57;9.23;;;3.33;;
23250;SDS011;11794;49.730;10.088;2023-09-12T03:19:22;9.73;;;3.27;;
23250;SDS011;11794;49.730;10.088;2023-09-12T03:21:48;13.20;;;3.10;;
23250;SDS011;11794;49.730;10.088;2023-09-12T03:24:13;9.02;;;3.13;;
23250;SDS011;11794;49.730;10.088;2023-09-12T03:26:39;9.00;;;2.60;;
23250;SDS011;11794;49.730;10.088;2023-09-12T03:29:04;8.80;;;3.00;;
23250;SDS011;11794;49.730;10.088;2023-09-12T03:31:30;9.93;;;2.70;;
23250;SDS011;11794;49.730;10.088;2023-09-12T03:33:56;12.60;;;2.88;;
23250;SDS011;11794;49.730;10.088;2023-09-12T03:36:21;11.33;;;3.00;;
23250;SDS011;11794;49.730;10.088;2023-09-12T03:38:47;7.22;;;2.15;;
23250;SDS011;11794;49.730;10.088;2023-09-12T03:41:12;8.13;;;2.90;;
23250;SDS011;11794;49.730;10.088;2023-09-12T03:43:38;10.17;;;3.57;;
23250;SDS011;11794;49.730;10.088;2023-09-12T03:46:04;10.10;;;2.90;;
23250;SDS011;11794;49.730;10.088;2023-09-12T03:48:29;8.63;;;2.57;;
23250;SDS011;11794;49.730;10.088;2023-09-12T03:50:59;7.95;;;2.75;;
23250;SDS011;11794;49.730;10.088;2023-09-12T03:53:24;9.68;;;3.08;;
23250;SDS011;11794;49.730;10.088;2023-09-12T03:55:51;8.67;;;3.03;;
23250;SDS011;11794;49.730;10.088;2023-09-12T03:58:17;9.63;;;2.70;;
23250;SDS011;11794;49.730;10.088;2023-09-12T04:00:42;8.70;;;3.05;;
23250;SDS011;11794;49.730;10.088;2023-09-12T04:03:08;8.03;;;3.00;;
23250;SDS011;11794;49.730;10.088;2023-09-12T04:05:34;7.03;;;2.35;;
23250;SDS011;11794;49.730;10.088;2023-09-12T04:08:00;8.30;;;2.77;;
23250;SDS011;11794;49.730;10.088;2023-09-12T04:10:25;8.95;;;2.97;;
23250;SDS011;11794;49.730;10.088;2023-09-12T04:12:51;9.50;;;2.43;;
23250;SDS011;11794;49.730;10.088;2023-09-12T04:15:16;8.00;;;2.90;;
23250;SDS011;11794;49.730;10.088;2023-09-12T04:17:42;11.73;;;2.90;;
23250;SDS011;11794;49.730;10.088;2023-09-12T04:20:08;10.63;;;2.78;;
23250;SDS011;11794;49.730;10.088;2023-09-12T04:22:33;8.77;;;2.60;;
23250;SDS011;11794;49.730;10.088;2023-09-12T04:24:59;8.25;;;2.80;;
23250;SDS011;11794;49.730;10.088;2023-09-12T04:27:24;8.77;;;2.87;;
23250;SDS011;11794;49.730;10.088;2023-09-12T04:29:50;9.80;;;3.13;;
23250;SDS011;11794;49.730;10.088;2023-09-12T04:32:15;10.07;;;3.30;;
23250;SDS011;11794;49.730;10.088;2023-09-12T04:34:48;11.88;;;3.25;;
23250;SDS011;11794;49.730;10.088;2023-09-12T04:37:16;9.37;;;2.93;;
23250;SDS011;11794;49.730;10.088;2023-09-12T04:39:42;9.67;;;3.33;;
23250;SDS011;11794;49.730;10.088;2023-09-12T04:42:08;10.15;;;3.17;;
23250;SDS011;11794;49.730;10.088;2023-09-12T04:44:36;8.90;;;3.13;;
23250;SDS011;11794;49.730;10.088;2023-09-12T04:47:05;11.10;;;3.42;;
23250;SDS011;11794;49.730;10.088;2023-09-12T04:49:31;12.13;;;3.45;;
23250;SDS011;11794;49.730;10.088;2023-09-12T04:51:56;8.67;;;3.17;;
23250;SDS011;11794;49.730;10.088;2023-09-12T04:54:22;9.57;;;3.00;;
23250;SDS011;11794;49.730;10.088;2023-09-12T04:56:48;15.20;;;3.33;;
23250;SDS011;11794;49.730;10.088;2023-09-12T04:59:13;7.97;;;2.90;;
23250;SDS011;11794;49.730;10.088;2023-09-12T05:01:39;9.10;;;3.00;;
23250;SDS011;11794;49.730;10.088;2023-09-12T05:04:05;9.15;;;3.55;;
23250;SDS011;11794;49.730;10.088;2023-09-12T05:06:30;10.77;;;3.17;;
23250;SDS011;11794;49.730;10.088;2023-09-12T05:08:56;8.75;;;3.05;;
23250;SDS011;11794;49.730;10.088;2023-09-12T05:11:22;9.97;;;3.13;;
23250;SDS011;11794;49.730;10.088;2023-09-12T05:13:49;9.07;;;3.13;;
23250;SDS011;11794;49.730;10.088;2023-09-12T05:16:14;8.63;;;3.40;;
23250;SDS011;11794;49.730;10.088;2023-09-12T05:18:40;11.43;;;3.10;;
23250;SDS011;11794;49.730;10.088;2023-09-12T05:21:05;9.83;;;3.40;;
23250;SDS011;11794;49.730;10.088;2023-09-12T05:23:31;11.57;;;3.40;;
23250;SDS011;11794;49.730;10.088;2023-09-12T05:25:56;11.20;;;3.13;;
23250;SDS011;11794;49.730;10.088;2023-09-12T05:28:22;8.63;;;3.13;;
23250;SDS011;11794;49.730;10.088;2023-09-12T05:30:48;11.10;;;3.80;;
23250;SDS011;11794;49.730;10.088;2023-09-12T05:33:13;10.17;;;3.20;;
23250;SDS011;11794;49.730;10.088;2023-09-12T05:35:39;11.25;;;3.17;;
23250;SDS011;11794;49.730;10.088;2023-09-12T05:38:05;11.03;;;3.10;;
23250;SDS011;11794;49.730;10.088;2023-09-12T05:40:30;11.02;;;3.45;;
23250;SDS011;11794;49.730;10.088;2023-09-12T05:42:56;8.13;;;2.87;;
23250;SDS011;11794;49.730;10.088;2023-09-12T05:45:21;9.07;;;3.45;;
23250;SDS011;11794;49.730;10.088;2023-09-12T05:47:48;8.33;;;3.27;;
23250;SDS011;11794;49.730;10.088;2023-09-12T05:50:15;9.53;;;3.13;;
23250;SDS011;11794;49.730;10.088;2023-09-12T05:52:41;8.45;;;3.45;;
23250;SDS011;11794;49.730;10.088;2023-09-12T05:55:07;9.20;;;3.50;;
23250;SDS011;11794;49.730;10.088;2023-09-12T05:57:33;12.43;;;3.30;;
23250;SDS011;11794;49.730;10.088;2023-09-12T05:59:59;10.87;;;3.40;;
23250;SDS011;11794;49.730;10.088;2023-09-12T06:02:26;9.43;;;3.38;;
23250;SDS011;11794;49.730;10.088;2023-09-12T06:04:52;11.60;;;3.95;;
23250;SDS011;11794;49.730;10.088;2023-09-12T06:07:18;10.52;;;3.65;;
23250;SDS011;11794;49.730;10.088;2023-09-12T06:09:44;11.20;;;3.80;;
23250;SDS011;11794;49.730;10.088;2023-09-12T06:12:10;10.33;;;3.70;;
23250;SDS011;11794;49.730;10.088;2023-09-12T06:14:35;9.70;;;3.13;;
23250;SDS011;11794;49.730;10.088;2023-09-12T06:17:01;13.95;;;3.75;;
23250;SDS011;11794;49.730;10.088;2023-09-12T06:19:26;9.70;;;3.83;;
23250;SDS011;11794;49.730;10.088;2023-09-12T06:21:52;11.57;;;3.80;;
23250;SDS011;11794;49.730;10.088;2023-09-12T06:24:21;12.33;;;3.90;;
23250;SDS011;11794;49.730;10.088;2023-09-12T06:26:47;10.48;;;3.60;;
23250;SDS011;11794;49.730;10.088;2023-09-12T06:29:13;9.25;;;4.10;;
23250;SDS011;11794;49.730;10.088;2023-09-12T06:31:39;12.68;;;4.40;;
23250;SDS011;11794;49.730;10.088;2023-09-12T06:34:06;9.65;;;3.80;;
23250;SDS011;11794;49.730;10.088;2023-09-12T06:36:32;8.77;;;3.83;;
23250;SDS011;11794;49.730;10.088;2023-09-12T06:38:58;10.80;;;4.47;;
23250;SDS011;11794;49.730;10.088;2023-09-12T06:41:25;11.88;;;4.00;;
23250;SDS011;11794;49.730;10.088;2023-09-12T06:43:51;13.75;;;4.50;;
23250;SDS011;11794;49.730;10.088;2023-09-12T06:46:16;11.70;;;4.70;;
23250;SDS011;11794;49.730;10.088;2023-09-12T06:48:43;9.50;;;4.27;;
23250;SDS011;11794;49.730;10.088;2023-09-12T06:51:11;10.85;;;4.38;;
23250;SDS011;11794;49.730;10.088;2023-09-12T06:53:37;11.25;;;4.65;;
23250;SDS011;11794;49.730;10.088;2023-09-12T06:56:04;13.05;;;5.00;;
23250;SDS011;11794;49.730;10.088;2023-09-12T06:58:29;13.90;;;4.75;;
23250;SDS011;11794;49.730;10.088;2023-09-12T07:00:55;13.87;;;5.00;;
23250;SDS011;11794;49.730;10.088;2023-09-12T07:03:21;12.35;;;5.25;;
23250;SDS011;11794;49.730;10.088;2023-09-12T07:05:46;14.87;;;5.33;;
23250;SDS011;11794;49.730;10.088;2023-09-12T07:08:13;11.18;;;4.47;;
23250;SDS011;11794;49.730;10.088;2023-09-12T07:10:45;13.50;;;5.60;;
23250;SDS011;11794;49.730;10.088;2023-09-12T07:13:11;12.98;;;5.32;;
23250;SDS011;11794;49.730;10.088;2023-09-12T07:15:37;11.82;;;4.38;;
23250;SDS011;11794;49.730;10.088;2023-09-12T07:18:02;15.25;;;5.75;;
23250;SDS011;11794;49.730;10.088;2023-09-12T07:20:29;15.93;;;6.47;;
23250;SDS011;11794;49.730;10.088;2023-09-12T07:22:54;11.52;;;5.50;;
23250;SDS011;11794;49.730;10.088;2023-09-12T07:25:20;10.15;;;4.70;;
23250;SDS011;11794;49.730;10.088;2023-09-12T07:27:48;12.50;;;4.93;;
23250;SDS011;11794;49.730;10.088;2023-09-12T07:30:14;12.00;;;5.03;;
23250;SDS011;11794;49.730;10.088;2023-09-12T07:32:40;15.25;;;5.70;;
23250;SDS011;11794;49.730;10.088;2023-09-12T07:35:06;14.10;;;4.93;;
23250;SDS011;11794;49.730;10.088;2023-09-12T07:37:32;12.63;;;5.00;;
23250;SDS011;11794;49.730;10.088;2023-09-12T07:39:57;11.97;;;5.63;;
23250;SDS011;11794;49.730;10.088;2023-09-12T07:42:23;10.63;;;4.88;;
23250;SDS011;11794;49.730;10.088;2023-09-12T07:44:49;12.65;;;5.00;;
23250;SDS011;11794;49.730;10.088;2023-09-12T07:47:14;9.97;;;5.43;;
23250;SDS011;11794;49.730;10.088;2023-09-12T07:49:40;10.50;;;4.82;;
23250;SDS011;11794;49.730;10.088;2023-09-12T07:52:06;12.20;;;4.90;;
23250;SDS011;11794;49.730;10.088;2023-09-12T07:54:31;13.68;;;4.93;;
23250;SDS011;11794;49.730;10.088;2023-09-12T07:56:57;12.27;;;5.18;;
23250;SDS011;11794;49.730;10.088;2023-09-12T07:59:23;11.33;;;4.90;;
23250;SDS011;11794;49.730;10.088;2023-09-12T08:01:49;11.85;;;5.55;;
23250;SDS011;11794;49.730;10.088;2023-09-12T08:04:14;10.70;;;5.17;;
23250;SDS011;11794;49.730;10.088;2023-09-12T08:06:40;14.33;;;5.17;;
23250;SDS011;11794;49.730;10.088;2023-09-12T08:09:06;10.82;;;4.40;;
23250;SDS011;11794;49.730;10.088;2023-09-12T08:11:33;12.60;;;5.40;;
23250;SDS011;11794;49.730;10.088;2023-09-12T08:13:58;10.43;;;4.90;;
23250;SDS011;11794;49.730;10.088;2023-09-12T08:16:24;10.90;;;4.85;;
23250;SDS011;11794;49.730;10.088;2023-09-12T08:18:49;14.13;;;4.70;;
23250;SDS011;11794;49.730;10.088;2023-09-12T08:21:15;10.67;;;5.00;;
23250;SDS011;11794;49.730;10.088;2023-09-12T08:23:40;12.93;;;5.17;;
23250;SDS011;11794;49.730;10.088;2023-09-12T08:26:06;14.53;;;5.50;;
23250;SDS011;11794;49.730;10.088;2023-09-12T08:28:32;9.23;;;5.13;;
23250;SDS011;11794;49.730;10.088;2023-09-12T08:30:57;12.03;;;5.47;;
23250;SDS011;11794;49.730;10.088;2023-09-12T08:33:23;11.98;;;5.80;;
23250;SDS011;11794;49.730;10.088;2023-09-12T08:35:49;12.47;;;5.37;;
23250;SDS011;11794;49.730;10.088;2023-09-12T08:38:15;9.70;;;5.15;;
23250;SDS011;11794;49.730;10.088;2023-09-12T08:40:41;10.93;;;5.80;;
23250;SDS011;11794;49.730;10.088;2023-09-12T08:43:13;10.83;;;5.47;;
23250;SDS011;11794;49.730;10.088;2023-09-12T08:45:39;12.37;;;6.03;;
23250;SDS011;11794;49.730;10.088;2023-09-12T08:48:05;10.63;;;5.97;;
23250;SDS011;11794;49.730;10.088;2023-09-12T08:50:32;11.40;;;5.70;;
23250;SDS011;11794;49.730;10.088;2023-09-12T08:52:59;9.00;;;5.50;;
23250;SDS011;11794;49.730;10.088;2023-09-12T08:55:24;12.17;;;5.80;;
23250;SDS011;11794;49.730;10.088;2023-09-12T08:57:50;8.32;;;4.95;;
23250;SDS011;11794;49.730;10.088;2023-09-12T09:00:16;13.25;;;6.13;;
23250;SDS011;11794;49.730;10.088;2023-09-12T09:02:43;15.43;;;6.13;;
23250;SDS011;11794;49.730;10.088;2023-09-12T09:05:10;12.50;;;5.13;;
23250;SDS011;11794;49.730;10.088;2023-09-12T09:07:36;10.25;;;6.20;;
23250;SDS011;11794;49.730;10.088;2023-09-12T09:10:06;10.70;;;5.25;;
23250;SDS011;11794;49.730;10.088;2023-09-12T09:12:33;8.90;;;5.70;;
23250;SDS011;11794;49.730;10.088;2023-09-12T09:17:48;11.57;;;5.75;;
23250;SDS011;11794;49.730;10.088;2023-09-12T09:20:32;8.10;;;4.45;;
23250;SDS011;11794;49.730;10.088;2023-09-12T09:23:06;12.60;;;5.00;;
23250;SDS011;11794;49.730;10.088;2023-09-12T09:25:36;10.43;;;4.90;;
23250;SDS011;11794;49.730;10.088;2023-09-12T09:28:05;12.00;;;5.00;;
23250;SDS011;11794;49.730;10.088;2023-09-12T09:30:42;9.35;;;5.50;;
23250;SDS011;11794;49.730;10.088;2023-09-12T09:33:09;10.40;;;5.50;;
23250;SDS011;11794;49.730;10.088;2023-09-12T09:35:36;9.32;;;4.80;;
23250;SDS011;11794;49.730;10.088;2023-09-12T09:38:02;8.60;;;5.13;;
23250;SDS011;11794;49.730;10.088;2023-09-12T09:40:30;9.10;;;5.30;;
23250;SDS011;11794;49.730;10.088;2023-09-12T09:42:58;9.52;;;5.60;;
23250;SDS011;11794;49.730;10.088;2023-09-12T09:45:25;10.18;;;5.32;;
23250;SDS011;11794;49.730;10.088;2023-09-12T09:47:51;9.98;;;5.95;;
23250;SDS011;11794;49.730;10.088;2023-09-12T09:50:17;11.70;;;5.87;;
23250;SDS011;11794;49.730;10.088;2023-09-12T09:52:43;11.23;;;5.93;;
23250;SDS011;11794;49.730;10.088;2023-09-12T09:55:19;11.32;;;5.70;;
23250;SDS011;11794;49.730;10.088;2023-09-12T09:57:44;9.55;;;5.60;;
23250;SDS011;11794;49.730;10.088;2023-09-12T10:00:10;11.77;;;5.97;;
23250;SDS011;11794;49.730;10.088;2023-09-12T10:02:39;10.80;;;5.15;;
23250;SDS011;11794;49.730;10.088;2023-09-12T10:05:06;9.27;;;5.50;;
23250;SDS011;11794;49.730;10.088;2023-09-12T10:07:37;13.38;;;6.07;;
23250;SDS011;11794;49.730;10.088;2023-09-12T10:10:04;9.40;;;5.23;;
23250;SDS011;11794;49.730;10.088;2023-09-12T10:12:30;11.13;;;5.63;;
23250;SDS011;11794;49.730;10.088;2023-09-12T10:15:00;13.77;;;5.88;;
23250;SDS011;11794;49.730;10.088;2023-09-12T10:17:29;9.05;;;5.28;;
23250;SDS011;11794;49.730;10.088;2023-09-12T10:20:02;9.80;;;5.72;;
23250;SDS011;11794;49.730;10.088;2023-09-12T10:22:43;8.68;;;5.53;;
23250;SDS011;11794;49.730;10.088;2023-09-12T10:25:16;11.23;;;5.68;;
23250;SDS011;11794;49.730;10.088;2023-09-12T10:27:42;10.20;;;5.70;;
23250;SDS011;11794;49.730;10.088;2023-09-12T10:30:07;9.98;;;5.55;;
23250;SDS011;11794;49.730;10.088;2023-09-12T10:32:34;11.03;;;5.33;;
23250;SDS011;11794;49.730;10.088;2023-09-12T10:35:00;11.63;;;4.82;;
23250;SDS011;11794;49.730;10.088;2023-09-12T10:37:28;8.80;;;5.05;;
23250;SDS011;11794;49.730;10.088;2023-09-12T10:39:57;9.45;;;5.68;;
23250;SDS011;11794;49.730;10.088;2023-09-12T10:42:25;9.20;;;5.55;;
23250;SDS011;11794;49.730;10.088;2023-09-12T10:44:52;9.30;;;5.45;;
23250;SDS011;11794;49.730;10.088;2023-09-12T10:47:20;9.52;;;5.43;;
23250;SDS011;11794;49.730;10.088;2023-09-12T10:49:46;10.02;;;5.07;;
23250;SDS011;11794;49.730;10.088;2023-09-12T10:52:25;10.13;;;5.68;;
23250;SDS011;11794;49.730;10.088;2023-09-12T10:54:52;6.97;;;4.93;;
23250;SDS011;11794;49.730;10.088;2023-09-12T10:57:18;9.10;;;5.80;;
23250;SDS011;11794;49.730;10.088;2023-09-12T11:02:36;8.02;;;5.72;;
23250;SDS011;11794;49.730;10.088;2023-09-12T11:05:04;9.90;;;5.20;;
23250;SDS011;11794;49.730;10.088;2023-09-12T11:12:41;8.65;;;5.70;;
23250;SDS011;11794;49.730;10.088;2023-09-12T11:15:08;12.53;;;5.47;;
23250;SDS011;11794;49.730;10.088;2023-09-12T11:17:45;8.23;;;5.43;;
23250;SDS011;11794;49.730;10.088;2023-09-12T11:20:48;10.25;;;5.60;;
23250;SDS011;11794;49.730;10.088;2023-09-12T11:23:22;9.00;;;5.32;;
23250;SDS011;11794;49.730;10.088;2023-09-12T11:25:48;9.80;;;5.70;;
23250;SDS011;11794;49.730;10.088;2023-09-12T11:28:14;8.30;;;4.67;;
23250;SDS011;11794;49.730;10.088;2023-09-12T11:30:54;8.95;;;4.88;;
23250;SDS011;11794;49.730;10.088;2023-09-12T11:33:21;10.02;;;4.90;;
23250;SDS011;11794;49.730;10.088;2023-09-12T11:35:49;9.35;;;5.13;;
23250;SDS011;11794;49.730;10.088;2023-09-12T11:38:26;7.05;;;4.78;;
23250;SDS011;11794;49.730;10.088;2023-09-12T11:40:55;8.93;;;5.93;;
23250;SDS011;11794;49.730;10.088;2023-09-12T11:43:22;10.43;;;5.63;;
23250;SDS011;11794;49.730;10.088;2023-09-12T11:45:48;8.07;;;5.45;;
23250;SDS011;11794;49.730;10.088;2023-09-12T11:48:16;9.07;;;4.93;;
23250;SDS011;11794;49.730;10.088;2023-09-12T11:50:42;7.17;;;5.73;;
23250;SDS011;11794;49.730;10.088;2023-09-12T11:53:11;7.88;;;5.55;;
23250;SDS011;11794;49.730;10.088;2023-09-12T11:55:47;7.88;;;5.40;;
23250;SDS011;11794;49.730;10.088;2023-09-12T11:58:14;8.27;;;4.87;;
23250;SDS011;11794;49.730;10.088;2023-09-12T12:00:59;8.23;;;5.67;;
23250;SDS011;11794;49.730;10.088;2023-09-12T12:03:25;9.18;;;5.90;;
23250;SDS011;11794;49.730;10.088;2023-09-12T12:05:52;8.80;;;5.13;;
23250;SDS011;11794;49.730;10.088;2023-09-12T12:08:21;8.30;;;5.55;;
23250;SDS011;11794;49.730;10.088;2023-09-12T12:10:50;7.53;;;5.35;;
23250;SDS011;11794;49.730;10.088;2023-09-12T12:13:17;9.13;;;5.43;;
23250;SDS011;11794;49.730;10.088;2023-09-12T12:15:43;7.40;;;4.90;;
23250;SDS011;11794;49.730;10.088;2023-09-12T12:18:08;7.83;;;5.50;;
23250;SDS011;11794;49.730;10.088;2023-09-12T12:20:34;9.23;;;5.27;;
23250;SDS011;11794;49.730;10.088;2023-09-12T12:23:00;8.98;;;5.53;;
23250;SDS011;11794;49.730;10.088;2023-09-12T12:25:26;10.40;;;5.80;;
23250;SDS011;11794;49.730;10.088;2023-09-12T12:27:51;12.10;;;6.30;;
23250;SDS011;11794;49.730;10.088;2023-09-12T12:30:17;9.33;;;5.47;;
23250;SDS011;11794;49.730;10.088;2023-09-12T12:32:45;9.25;;;5.10;;
23250;SDS011;11794;49.730;10.088;2023-09-12T12:35:20;8.90;;;5.55;;
23250;SDS011;11794;49.730;10.088;2023-09-12T12:37:48;9.57;;;4.88;;
23250;SDS011;11794;49.730;10.088;2023-09-12T12:40:14;8.38;;;5.10;;
23250;SDS011;11794;49.730;10.088;2023-09-12T12:42:42;10.98;;;5.68;;
23250;SDS011;11794;49.730;10.088;2023-09-12T12:45:19;8.35;;;5.30;;
23250;SDS011;11794;49.730;10.088;2023-09-12T12:47:46;7.72;;;5.28;;
23250;SDS011;11794;49.730;10.088;2023-09-12T12:50:16;7.97;;;5.40;;
23250;SDS011;11794;49.730;10.088;2023-09-12T12:52:46;10.33;;;5.13;;
23250;SDS011;11794;49.730;10.088;2023-09-12T12:55:13;7.50;;;5.60;;
23250;SDS011;11794;49.730;10.088;2023-09-12T12:57:39;9.68;;;5.82;;
23250;SDS011;11794;49.730;10.088;2023-09-12T13:02:35;8.20;;;6.50;;
23250;SDS011;11794;49.730;10.088;2023-09-12T13:05:02;9.30;;;5.43;;
23250;SDS011;11794;49.730;10.088;2023-09-12T13:07:27;9.23;;;5.00;;
23250;SDS011;11794;49.730;10.088;2023-09-12T13:09:53;8.85;;;5.28;;
23250;SDS011;11794;49.730;10.088;2023-09-12T13:12:18;9.13;;;5.80;;
23250;SDS011;11794;49.730;10.088;2023-09-12T13:14:44;9.02;;;5.35;;
23250;SDS011;11794;49.730;10.088;2023-09-12T13:17:10;8.47;;;4.57;;
23250;SDS011;11794;49.730;10.088;2023-09-12T13:19:35;8.07;;;5.07;;
23250;SDS011;11794;49.730;10.088;2023-09-12T13:22:01;9.43;;;5.43;;
23250;SDS011;11794;49.730;10.088;2023-09-12T13:24:27;7.90;;;4.97;;
23250;SDS011;11794;49.730;10.088;2023-09-12T13:26:53;7.60;;;5.80;;
23250;SDS011;11794;49.730;10.088;2023-09-12T13:29:18;7.93;;;5.93;;
23250;SDS011;11794;49.730;10.088;2023-09-12T13:31:44;8.20;;;5.03;;
23250;SDS011;11794;49.730;10.088;2023-09-12T13:34:10;7.83;;;5.33;;
23250;SDS011;11794;49.730;10.088;2023-09-12T13:36:36;6.35;;;5.03;;
23250;SDS011;11794;49.730;10.088;2023-09-12T13:39:01;9.87;;;5.90;;
23250;SDS011;11794;49.730;10.088;2023-09-12T13:41:27;8.48;;;5.90;;
23250;SDS011;11794;49.730;10.088;2023-09-12T13:43:53;8.63;;;5.40;;
23250;SDS011;11794;49.730;10.088;2023-09-12T13:46:18;7.70;;;5.20;;
23250;SDS011;11794;49.730;10.088;2023-09-12T13:48:44;8.93;;;5.20;;
23250;SDS011;11794;49.730;10.088;2023-09-12T13:51:09;9.13;;;6.00;;
23250;SDS011;11794;49.730;10.088;2023-09-12T13:53:35;8.80;;;5.70;;
23250;SDS011;11794;49.730;10.088;2023-09-12T13:56:00;11.90;;;6.03;;
23250;SDS011;11794;49.730;10.088;2023-09-12T13:58:27;9.07;;;4.88;;
23250;SDS011;11794;49.730;10.088;2023-09-12T14:00:52;7.73;;;5.40;;
23250;SDS011;11794;49.730;10.088;2023-09-12T14:03:18;8.68;;;4.55;;
23250;SDS011;11794;49.730;10.088;2023-09-12T14:05:43;7.43;;;5.10;;
23250;SDS011;11794;49.730;10.088;2023-09-12T14:08:09;9.35;;;4.63;;
23250;SDS011;11794;49.730;10.088;2023-09-12T14:10:35;8.97;;;4.70;;
23250;SDS011;11794;49.730;10.088;2023-09-12T14:13:00;8.80;;;4.82;;
23250;SDS011;11794;49.730;10.088;2023-09-12T14:15:26;6.93;;;5.00;;
23250;SDS011;11794;49.730;10.088;2023-09-12T14:17:51;8.50;;;4.72;;
23250;SDS011;11794;49.730;10.088;2023-09-12T14:20:17;7.23;;;4.90;;
23250;SDS011;11794;49.730;10.088;2023-09-12T14:22:43;9.60;;;5.17;;
23250;SDS011;11794;49.730;10.088;2023-09-12T14:25:09;7.40;;;4.33;;
23250;SDS011;11794;49.730;10.088;2023-09-12T14:27:40;8.70;;;4.78;;
23250;SDS011;11794;49.730;10.088;2023-09-12T14:30:07;8.65;;;4.30;;
23250;SDS011;11794;49.730;10.088;2023-09-12T14:32:33;9.80;;;5.20;;
23250;SDS011;11794;49.730;10.088;2023-09-12T14:34:59;6.63;;;4.60;;
23250;SDS011;11794;49.730;10.088;2023-09-12T14:37:24;7.88;;;5.10;;
23250;SDS011;11794;49.730;10.088;2023-09-12T14:39:52;8.00;;;4.20;;
23250;SDS011;11794;49.730;10.088;2023-09-12T14:42:18;9.47;;;4.70;;
23250;SDS011;11794;49.730;10.088;2023-09-12T14:44:44;6.70;;;4.30;;
23250;SDS011;11794;49.730;10.088;2023-09-12T14:47:09;7.50;;;4.83;;
23250;SDS011;11794;49.730;10.088;2023-09-12T14:49:35;9.30;;;4.93;;